createdAt,value
2018-11-26T00:00:02.913Z,101451.83
2018-11-26T00:03:12.402Z,101448.38
2018-11-26T00:06:17.455Z,101453.22
2018-11-26T00:09:22.140Z,101448.38
2018-11-26T00:12:26.762Z,101454.41
2018-11-26T00:15:32.239Z,101448.69
2018-11-26T00:18:39.593Z,101452.65
2018-11-26T00:21:43.876Z,101458.20
2018-11-26T00:24:48.167Z,101450.54
2018-11-26T00:27:52.433Z,101453.99
2018-11-26T00:30:57.141Z,101449.41
2018-11-26T00:34:01.464Z,101448.28
2018-11-26T00:37:05.837Z,101453.43
2018-11-26T00:40:11.817Z,101450.06
2018-11-26T00:43:16.093Z,101458.27
2018-11-26T00:46:20.831Z,101446.84
2018-11-26T00:49:25.961Z,101456.00
2018-11-26T00:52:30.599Z,101445.08
2018-11-26T00:55:35.125Z,101450.48
2018-11-26T00:58:39.421Z,101447.50
2018-11-26T01:01:43.978Z,101441.86
2018-11-26T01:04:48.456Z,101440.98
2018-11-26T01:07:53.784Z,101440.41
2018-11-26T01:10:58.111Z,101443.08
2018-11-26T01:14:02.411Z,101439.84
2018-11-26T01:17:08.384Z,101437.58
2018-11-26T01:20:14.559Z,101432.12
2018-11-26T01:23:39.021Z,101432.78
2018-11-26T01:26:58.812Z,101435.56
2018-11-26T01:30:03.662Z,101439.78
2018-11-26T01:33:08.047Z,101445.70
2018-11-26T01:36:12.316Z,101439.42
2018-11-26T01:39:16.971Z,101445.64
2018-11-26T01:42:21.290Z,101442.16
2018-11-26T01:45:25.629Z,101444.09
2018-11-26T01:48:30.029Z,101445.45
2018-11-26T01:51:34.311Z,101444.88
2018-11-26T01:54:38.628Z,101449.80
2018-11-26T01:57:42.963Z,101456.03
2018-11-26T02:00:47.280Z,101467.03
2018-11-26T02:03:51.620Z,101461.52
2018-11-26T02:06:55.941Z,101457.87
2018-11-26T02:10:00.264Z,101460.98
2018-11-26T02:13:04.658Z,101453.52
2018-11-26T02:16:09.038Z,101447.47
2018-11-26T02:19:13.325Z,101440.56
2018-11-26T02:22:18.094Z,101435.16
2018-11-26T02:25:22.522Z,101438.70
2018-11-26T02:28:26.870Z,101445.61
2018-11-26T02:31:31.209Z,101448.66
2018-11-26T02:34:35.489Z,101444.23
2018-11-26T02:37:39.798Z,101442.89
2018-11-26T02:40:44.072Z,101437.44
2018-11-26T02:43:48.432Z,101443.94
2018-11-26T02:46:54.262Z,101444.69
2018-11-26T02:50:00.984Z,101448.13
2018-11-26T02:53:06.015Z,101444.38
2018-11-26T02:56:10.428Z,101444.41
2018-11-26T02:59:14.838Z,101440.86
2018-11-26T03:02:19.102Z,101441.38
2018-11-26T03:05:29.511Z,101438.94
2018-11-26T03:08:35.602Z,101434.41
2018-11-26T03:11:39.986Z,101436.84
2018-11-26T03:14:44.892Z,101431.23
2018-11-26T03:17:49.199Z,101427.84
2018-11-26T03:20:53.448Z,101425.17
2018-11-26T03:23:57.781Z,101415.30
2018-11-26T03:27:02.465Z,101417.55
2018-11-26T03:30:17.954Z,101413.69
2018-11-26T03:33:22.241Z,101412.95
2018-11-26T03:36:26.514Z,101416.02
2018-11-26T03:39:31.349Z,101412.64
2018-11-26T03:42:37.297Z,101420.61
2018-11-26T03:45:42.625Z,101420.50
2018-11-26T03:48:47.343Z,101416.00
2018-11-26T03:51:51.612Z,101418.11
2018-11-26T03:54:55.912Z,101414.97
2018-11-26T03:58:00.202Z,101416.45
2018-11-26T04:01:04.641Z,101418.55
2018-11-26T04:04:08.905Z,101422.28
2018-11-26T04:07:13.177Z,101427.93
2018-11-26T04:10:17.466Z,101425.84
2018-11-26T04:13:21.775Z,101424.67
2018-11-26T04:16:26.618Z,101419.02
2018-11-26T04:19:30.895Z,101418.61
2018-11-26T04:22:35.210Z,101417.66
2018-11-26T04:25:40.694Z,101421.64
2018-11-26T04:28:45.090Z,101430.81
2018-11-26T04:31:49.381Z,101434.59
2018-11-26T04:34:53.718Z,101434.71
2018-11-26T04:37:58.056Z,101433.55
2018-11-26T04:41:03.863Z,101434.91
2018-11-26T04:44:08.179Z,101430.98
2018-11-26T04:47:12.514Z,101435.60
2018-11-26T04:50:16.857Z,101429.89
2018-11-26T04:53:21.146Z,101439.67
2018-11-26T04:56:25.514Z,101443.72
2018-11-26T04:59:30.474Z,101451.00
2018-11-26T05:02:36.481Z,101442.72
2018-11-26T05:05:42.020Z,101448.14
2018-11-26T05:08:46.361Z,101450.41
2018-11-26T05:11:50.631Z,101453.56
2018-11-26T05:14:54.909Z,101455.95
2018-11-26T05:18:00.290Z,101456.66
2018-11-26T05:21:04.684Z,101450.77
2018-11-26T05:24:09.150Z,101454.02
2018-11-26T05:27:13.360Z,101453.95
2018-11-26T05:30:17.674Z,101460.30
2018-11-26T05:33:22.070Z,101460.11
2018-11-26T05:36:26.414Z,101454.69
2018-11-26T05:39:30.752Z,101450.36
2018-11-26T05:42:35.045Z,101447.91
2018-11-26T05:45:41.063Z,101445.62
2018-11-26T05:48:45.429Z,101452.72
2018-11-26T05:51:49.926Z,101449.88
2018-11-26T05:54:54.204Z,101450.05
2018-11-26T05:58:00.201Z,101444.64
2018-11-26T06:01:05.129Z,101439.22
2018-11-26T06:04:09.769Z,101444.16
2018-11-26T06:07:14.174Z,101436.66
2018-11-26T06:10:18.560Z,101436.87
2018-11-26T06:13:22.852Z,101442.18
2018-11-26T06:16:27.300Z,101439.55
2018-11-26T06:19:31.621Z,101441.78
2018-11-26T06:22:36.004Z,101448.77
2018-11-26T06:25:40.441Z,101454.20
2018-11-26T06:28:44.852Z,101452.04
2018-11-26T06:31:50.455Z,101454.71
2018-11-26T06:34:54.873Z,101455.08
2018-11-26T06:37:59.161Z,101456.87
2018-11-26T06:41:03.477Z,101458.34
2018-11-26T06:44:08.220Z,101461.68
2018-11-26T06:47:12.601Z,101460.87
2018-11-26T06:50:19.990Z,101461.28
2018-11-26T06:53:24.905Z,101455.56
2018-11-26T06:56:29.249Z,101458.34
2018-11-26T06:59:33.621Z,101467.31
2018-11-26T07:02:38.791Z,101464.75
2018-11-26T07:05:43.205Z,101472.06
2018-11-26T07:08:47.524Z,101481.91
2018-11-26T07:11:52.333Z,101476.68
2018-11-26T07:14:56.748Z,101483.20
2018-11-26T07:18:01.058Z,101483.11
2018-11-26T07:21:06.529Z,101488.03
2018-11-26T07:24:10.801Z,101483.69
2018-11-26T07:27:15.350Z,101488.23
2018-11-26T07:30:24.125Z,101489.80
2018-11-26T07:33:28.550Z,101487.94
2018-11-26T07:36:33.536Z,101483.91
2018-11-26T07:39:37.887Z,101486.15
2018-11-26T07:42:46.433Z,101486.55
2018-11-26T07:45:50.769Z,101492.14
2018-11-26T07:48:55.054Z,101502.07
2018-11-26T07:51:59.352Z,101499.23
2018-11-26T07:55:04.538Z,101507.00
2018-11-26T07:58:09.119Z,101506.23
2018-11-26T08:01:13.850Z,101501.61
2018-11-26T08:04:18.106Z,101505.93
2018-11-26T08:07:22.388Z,101509.18
2018-11-26T08:10:26.720Z,101503.78
2018-11-26T08:13:31.038Z,101497.55
2018-11-26T08:16:36.483Z,101498.23
2018-11-26T08:19:40.758Z,101499.94
2018-11-26T08:22:45.247Z,101507.11
2018-11-26T08:25:49.582Z,101508.40
2018-11-26T08:28:53.867Z,101513.95
2018-11-26T08:31:58.130Z,101513.38
2018-11-26T08:35:02.680Z,101516.44
2018-11-26T08:38:18.360Z,101519.47
2018-11-26T08:41:26.719Z,101517.91
2018-11-26T08:44:36.426Z,101517.70
2018-11-26T08:47:44.124Z,101525.36
2018-11-26T08:50:48.979Z,101526.65
2018-11-26T08:53:53.740Z,101524.75
2018-11-26T08:57:03.168Z,101526.62
2018-11-26T09:00:14.196Z,101531.23
2018-11-26T09:03:23.229Z,101522.73
2018-11-26T09:06:31.827Z,101520.86
2018-11-26T09:09:40.523Z,101522.92
2018-11-26T09:12:49.499Z,101523.90
2018-11-26T09:15:56.080Z,101512.75
2018-11-26T09:19:01.487Z,101506.22
2018-11-26T09:22:09.267Z,101506.30
2018-11-26T09:25:14.883Z,101505.00
2018-11-26T09:28:19.727Z,101510.71
2018-11-26T09:31:24.289Z,101513.45
2018-11-26T09:37:58.804Z,101526.19
2018-11-26T09:41:03.517Z,101527.00
2018-11-26T09:44:08.460Z,101528.74
2018-11-26T09:47:12.963Z,101524.19
2018-11-26T09:50:22.018Z,101517.47
2018-11-26T09:53:26.350Z,101515.08
2018-11-26T09:56:31.150Z,101516.06
2018-11-26T09:59:35.665Z,101513.20
2018-11-26T10:02:43.436Z,101513.14
2018-11-26T10:05:47.830Z,101508.56
2018-11-26T10:08:52.451Z,101502.09
2018-11-26T10:12:05.180Z,101497.20
2018-11-26T10:15:18.421Z,101505.48
2018-11-26T10:18:22.991Z,101501.39
2018-11-26T10:21:27.356Z,101501.77
2018-11-26T10:24:32.687Z,101502.92
2018-11-26T10:27:37.005Z,101495.98
2018-11-26T10:30:41.940Z,101491.66
2018-11-26T10:33:49.521Z,101494.50
2018-11-26T10:36:53.985Z,101481.23
2018-11-26T10:39:58.266Z,101484.66
2018-11-26T10:43:03.673Z,101483.81
2018-11-26T10:46:08.513Z,101489.22
2018-11-26T10:49:12.912Z,101486.78
2018-11-26T10:52:17.575Z,101487.31
2018-11-26T10:55:24.103Z,101484.11
2018-11-26T10:58:28.445Z,101488.11
2018-11-26T11:01:44.451Z,101486.30
2018-11-26T11:04:49.075Z,101486.24
2018-11-26T11:07:53.323Z,101486.31
2018-11-26T11:11:00.150Z,101484.58
2018-11-26T11:14:04.511Z,101489.84
2018-11-26T11:17:08.490Z,101483.58
2018-11-26T11:20:20.401Z,101486.03
2018-11-26T11:23:24.961Z,101480.67
2018-11-26T11:26:29.382Z,101488.09
2018-11-26T11:29:33.693Z,101487.54
2018-11-26T11:32:38.164Z,101488.20
2018-11-26T11:35:42.434Z,101484.20
2018-11-26T11:38:46.981Z,101486.52
2018-11-26T11:41:52.399Z,101475.35
2018-11-26T11:45:00.235Z,101478.91
2018-11-26T11:48:04.554Z,101479.68
2018-11-26T11:51:09.071Z,101475.97
2018-11-26T11:54:15.239Z,101475.41
2018-11-26T11:57:19.613Z,101477.27
2018-11-26T12:00:32.017Z,101473.66
2018-11-26T12:03:36.481Z,101466.28
2018-11-26T12:06:41.108Z,101467.33
2018-11-26T12:09:45.466Z,101467.16
2018-11-26T12:12:49.846Z,101469.73
2018-11-26T12:15:54.326Z,101467.66
2018-11-26T12:18:58.621Z,101473.13
2018-11-26T12:22:03.013Z,101474.26
2018-11-26T12:25:13.307Z,101475.86
2018-11-26T12:28:17.604Z,101472.22
2018-11-26T12:31:22.686Z,101473.28
2018-11-26T12:34:27.026Z,101473.53
2018-11-26T12:40:53.913Z,101473.69
2018-11-26T12:43:58.311Z,101470.21
2018-11-26T12:47:02.616Z,101472.84
2018-11-26T12:50:07.400Z,101466.55
2018-11-26T12:53:13.203Z,101470.50
2018-11-26T12:56:17.474Z,101473.67
2018-11-26T12:59:21.744Z,101478.25
2018-11-26T13:02:26.045Z,101480.25
2018-11-26T13:05:30.353Z,101477.68
2018-11-26T13:08:34.710Z,101473.98
2018-11-26T13:11:38.989Z,101478.36
2018-11-26T13:14:45.017Z,101481.72
2018-11-26T13:17:49.334Z,101480.13
2018-11-26T13:20:53.649Z,101479.50
2018-11-26T13:23:57.944Z,101476.73
2018-11-26T13:27:02.244Z,101471.58
2018-11-26T13:30:13.313Z,101477.98
2018-11-26T13:33:19.336Z,101470.58
2018-11-26T13:36:23.607Z,101465.69
2018-11-26T13:39:27.920Z,101471.46
2018-11-26T13:42:32.548Z,101476.13
2018-11-26T13:45:39.206Z,101470.41
2018-11-26T13:48:43.529Z,101471.98
2018-11-26T13:51:47.895Z,101473.89
2018-11-26T13:54:52.235Z,101473.72
2018-11-26T13:57:56.525Z,101478.94
2018-11-26T14:01:00.857Z,101477.42
2018-11-26T14:04:05.793Z,101482.16
2018-11-26T14:07:10.664Z,101489.08
2018-11-26T14:10:22.669Z,101487.92
2018-11-26T14:13:27.064Z,101489.58
2018-11-26T14:16:31.458Z,101489.70
2018-11-26T14:19:36.671Z,101497.13
2018-11-26T14:22:41.048Z,101502.70
2018-11-26T14:25:45.481Z,101500.95
2018-11-26T14:28:49.820Z,101505.73
2018-11-26T14:31:54.199Z,101502.89
2018-11-26T14:34:58.591Z,101506.75
2018-11-26T14:38:06.939Z,101508.22
2018-11-26T14:41:11.251Z,101514.16
2018-11-26T14:44:15.613Z,101512.05
2018-11-26T14:47:20.705Z,101516.37
2018-11-26T14:50:25.393Z,101516.95
2018-11-26T14:53:29.688Z,101520.15
2018-11-26T14:56:34.084Z,101519.62
2018-11-26T14:59:38.392Z,101515.39
2018-11-26T15:02:43.689Z,101514.45
2018-11-26T15:05:47.159Z,101521.13
2018-11-26T15:08:51.466Z,101516.52
2018-11-26T15:11:55.840Z,101519.92
2018-11-26T15:15:02.916Z,101523.08
2018-11-26T15:18:07.311Z,101527.86
2018-11-26T15:21:11.752Z,101532.37
2018-11-26T15:24:16.210Z,101529.22
2018-11-26T15:27:20.506Z,101535.34
2018-11-26T15:30:26.716Z,101537.38
2018-11-26T15:33:31.174Z,101541.92
2018-11-26T15:36:35.761Z,101543.56
2018-11-26T15:39:39.929Z,101546.01
2018-11-26T15:42:44.239Z,101551.94
2018-11-26T15:45:48.675Z,101547.85
2018-11-26T15:48:53.191Z,101552.81
2018-11-26T15:51:57.543Z,101553.58
2018-11-26T15:55:01.988Z,101548.33
2018-11-26T15:58:07.703Z,101550.53
2018-11-26T16:01:12.504Z,101554.58
2018-11-26T16:04:18.108Z,101553.67
2018-11-26T16:07:22.591Z,101551.88
2018-11-26T16:10:26.951Z,101556.72
2018-11-26T16:13:31.400Z,101558.94
2018-11-26T16:16:36.208Z,101560.70
2018-11-26T16:19:40.791Z,101560.13
2018-11-26T16:22:45.199Z,101564.08
2018-11-26T16:25:50.929Z,101560.88
2018-11-26T16:28:55.337Z,101563.75
2018-11-26T16:31:59.759Z,101564.83
2018-11-26T16:35:04.268Z,101557.32
2018-11-26T16:38:10.283Z,101567.93
2018-11-26T16:41:14.761Z,101565.96
2018-11-26T16:44:19.469Z,101572.16
2018-11-26T16:47:35.928Z,101573.78
2018-11-26T16:50:40.268Z,101577.23
2018-11-26T16:53:44.879Z,101577.23
2018-11-26T16:56:49.321Z,101580.22
2018-11-26T16:59:53.930Z,101583.48
2018-11-26T17:03:00.088Z,101589.80
2018-11-26T17:06:07.173Z,101588.14
2018-11-26T17:09:21.306Z,101593.35
2018-11-26T17:12:26.659Z,101595.27
2018-11-26T17:15:31.098Z,101600.98
2018-11-26T17:18:35.420Z,101596.22
2018-11-26T17:21:39.800Z,101601.69
2018-11-26T17:24:44.216Z,101607.41
2018-11-26T17:27:49.017Z,101601.05
2018-11-26T17:30:54.640Z,101607.30
2018-11-26T17:33:59.091Z,101606.70
2018-11-26T17:37:03.493Z,101609.76
2018-11-26T17:40:14.162Z,101608.80
2018-11-26T17:43:20.610Z,101607.70
2018-11-26T17:46:25.082Z,101612.84
2018-11-26T17:49:29.470Z,101609.17
2018-11-26T17:52:34.027Z,101608.99
2018-11-26T17:55:50.500Z,101610.56
2018-11-26T17:58:54.811Z,101612.84
2018-11-26T18:01:59.477Z,101616.04
2018-11-26T18:05:03.906Z,101623.12
2018-11-26T18:08:10.920Z,101629.53
2018-11-26T18:11:15.530Z,101631.99
2018-11-26T18:14:20.023Z,101634.38
2018-11-26T18:17:24.368Z,101633.58
2018-11-26T18:20:29.129Z,101634.56
2018-11-26T18:23:33.486Z,101644.54
2018-11-26T18:26:37.883Z,101639.59
2018-11-26T18:29:42.450Z,101637.23
2018-11-26T18:32:46.927Z,101643.25
2018-11-26T18:35:51.396Z,101641.97
2018-11-26T18:38:55.689Z,101642.09
2018-11-26T18:42:00.133Z,101654.12
2018-11-26T18:45:04.880Z,101652.47
2018-11-26T18:48:10.815Z,101649.97
2018-11-26T18:51:15.684Z,101653.34
2018-11-26T18:54:21.250Z,101652.17
2018-11-26T18:57:25.583Z,101653.94
2018-11-26T19:03:50.113Z,101656.02
2018-11-26T19:06:54.863Z,101665.02
2018-11-26T19:10:00.953Z,101663.63
2018-11-26T19:13:16.199Z,101665.78
2018-11-26T19:16:26.265Z,101663.14
2018-11-26T19:19:32.089Z,101663.55
2018-11-26T19:22:37.334Z,101657.20
2018-11-26T19:25:41.850Z,101661.45
2018-11-26T19:28:46.312Z,101660.77
2018-11-26T19:31:55.860Z,101661.86
2018-11-26T19:34:55.321Z,101662.08
2018-11-26T19:37:59.733Z,101662.48
2018-11-26T19:41:04.203Z,101667.61
2018-11-26T19:44:08.543Z,101664.85
2018-11-26T19:47:12.955Z,101677.50
2018-11-26T19:50:19.150Z,101673.75
2018-11-26T19:53:24.172Z,101678.80
2018-11-26T19:56:28.548Z,101682.93
2018-11-26T19:59:34.570Z,101685.89
2018-11-26T20:02:39.055Z,101688.74
2018-11-26T20:06:13.494Z,101693.38
2018-11-26T20:09:18.199Z,101700.28
2018-11-26T20:12:22.629Z,101696.73
2018-11-26T20:15:26.990Z,101702.55
2018-11-26T20:18:31.399Z,101706.11
2018-11-26T20:21:36.015Z,101704.31
2018-11-26T20:24:40.413Z,101707.96
2018-11-26T20:27:45.371Z,101710.73
2018-11-26T20:30:49.655Z,101705.77
2018-11-26T20:33:54.035Z,101709.50
2018-11-26T20:36:58.439Z,101717.68
2018-11-26T20:40:02.798Z,101718.16
2018-11-26T20:43:10.179Z,101718.33
2018-11-26T20:46:14.629Z,101717.61
2018-11-26T20:49:20.800Z,101720.73
2018-11-26T20:52:25.156Z,101724.25
2018-11-26T20:55:29.533Z,101723.12
2018-11-26T20:58:34.140Z,101729.03
2018-11-26T21:01:39.010Z,101733.44
2018-11-26T21:04:43.476Z,101735.86
2018-11-26T21:07:47.962Z,101736.28
2018-11-26T21:10:52.477Z,101733.45
2018-11-26T21:13:56.945Z,101737.61
2018-11-26T21:17:01.286Z,101730.41
2018-11-26T21:20:12.554Z,101735.74
2018-11-26T21:23:27.301Z,101740.71
2018-11-26T21:26:31.631Z,101737.79
2018-11-26T21:29:36.023Z,101748.78
2018-11-26T21:32:40.487Z,101746.13
2018-11-26T21:35:45.928Z,101749.30
2018-11-26T21:38:50.278Z,101749.34
2018-11-26T21:41:55.706Z,101750.42
2018-11-26T21:45:00.007Z,101749.56
2018-11-26T21:48:04.276Z,101754.86
2018-11-26T21:51:08.554Z,101757.81
2018-11-26T21:54:12.841Z,101757.44
2018-11-26T21:57:17.123Z,101758.80
2018-11-26T22:00:27.289Z,101760.20
2018-11-26T22:03:31.618Z,101755.66
2018-11-26T22:06:35.952Z,101759.47
2018-11-26T22:09:40.269Z,101762.47
2018-11-26T22:12:47.407Z,101760.45
2018-11-26T22:15:51.730Z,101768.44
2018-11-26T22:18:56.093Z,101769.45
2018-11-26T22:22:00.419Z,101764.02
2018-11-26T22:25:05.315Z,101765.30
2018-11-26T22:28:11.155Z,101767.81
2018-11-26T22:31:15.481Z,101767.59
2018-11-26T22:34:19.772Z,101773.86
2018-11-26T22:37:24.173Z,101778.89
2018-11-26T22:40:28.586Z,101770.06
2018-11-26T22:43:32.962Z,101778.67
2018-11-26T22:46:37.381Z,101779.02
2018-11-26T22:49:41.881Z,101782.41
2018-11-26T22:52:46.217Z,101783.42
2018-11-26T22:55:50.492Z,101788.86
2018-11-26T22:58:54.825Z,101785.59
2018-11-26T23:01:59.245Z,101788.37
2018-11-26T23:05:03.556Z,101791.14
2018-11-26T23:08:07.883Z,101791.72
2018-11-26T23:11:13.430Z,101793.26
2018-11-26T23:14:17.754Z,101787.88
2018-11-26T23:17:22.092Z,101789.91
2018-11-26T23:20:26.459Z,101792.73
2018-11-26T23:23:30.784Z,101796.08
2018-11-26T23:26:35.077Z,101797.28
2018-11-26T23:29:39.392Z,101800.45
2018-11-26T23:32:44.224Z,101798.16
2018-11-26T23:35:48.836Z,101796.25
2018-11-26T23:38:53.204Z,101805.30
2018-11-26T23:41:57.523Z,101802.25
2018-11-26T23:45:01.881Z,101807.02
2018-11-26T23:48:07.063Z,101806.63
2018-11-26T23:51:11.662Z,101798.85
2018-11-26T23:54:16.501Z,101801.28
2018-11-26T23:57:20.934Z,101801.02
